Terminal Aerodrome Forecast
Issued by NWS

Home | Current Version | Previous Version | Text Only | Print | Product List | Glossary Off
Versions: 1 2 3 4 5 6 7 8 9 10 11 12 13 14 15 16

000
FTUS43 KICT 150500
TAFHUT
TAF
KHUT 150522Z 1506/1606 29006KT P6SM SKC
     FM151500 23010KT P6SM SKC
     FM151900 19016G25KT P6SM SKC
     FM160100 17015G20KT P6SM SCT250=

USA.gov is the U.S. government's official web portal to all federal, state and local government web resources and services.